sensor_id;sensor_type;location;lat;lon;timestamp;pressure;altitude;pressure_sealevel;temperature;humidity
75221;BME280;63802;53.232;6.570;2023-06-10T00:01:57;101858.09;;;15.60;100.00
75221;BME280;63802;53.232;6.570;2023-06-10T00:04:27;101875.91;;;15.66;100.00
75221;BME280;63802;53.232;6.570;2023-06-10T00:06:52;101876.16;;;15.58;100.00
75221;BME280;63802;53.232;6.570;2023-06-10T00:09:19;101876.81;;;15.48;100.00
75221;BME280;63802;53.232;6.570;2023-06-10T00:11:46;101880.59;;;15.43;100.00
75221;BME280;63802;53.232;6.570;2023-06-10T00:14:12;101885.22;;;15.35;100.00
75221;BME280;63802;53.232;6.570;2023-06-10T00:16:37;101894.56;;;15.31;100.00
75221;BME280;63802;53.232;6.570;2023-06-10T00:19:04;101883.44;;;15.24;100.00
75221;BME280;63802;53.232;6.570;2023-06-10T00:21:33;101880.22;;;15.18;100.00
75221;BME280;63802;53.232;6.570;2023-06-10T00:24:06;101881.75;;;15.16;100.00
75221;BME280;63802;53.232;6.570;2023-06-10T00:26:33;101892.75;;;15.16;100.00
75221;BME280;63802;53.232;6.570;2023-06-10T00:29:01;101887.59;;;15.14;100.00
75221;BME280;63802;53.232;6.570;2023-06-10T00:31:27;101883.97;;;15.07;100.00
75221;BME280;63802;53.232;6.570;2023-06-10T00:33:52;101883.19;;;15.10;100.00
75221;BME280;63802;53.232;6.570;2023-06-10T00:36:18;101891.09;;;15.11;100.00
75221;BME280;63802;53.232;6.570;2023-06-10T00:38:43;101889.47;;;15.07;100.00
75221;BME280;63802;53.232;6.570;2023-06-10T00:41:09;101881.63;;;15.09;100.00
75221;BME280;63802;53.232;6.570;2023-06-10T00:43:34;101887.84;;;15.06;100.00
75221;BME280;63802;53.232;6.570;2023-06-10T00:46:00;101886.13;;;14.98;100.00
75221;BME280;63802;53.232;6.570;2023-06-10T00:48:26;101900.31;;;15.00;100.00
75221;BME280;63802;53.232;6.570;2023-06-10T00:50:52;101885.59;;;14.89;100.00
75221;BME280;63802;53.232;6.570;2023-06-10T00:53:18;101895.44;;;14.90;100.00
75221;BME280;63802;53.232;6.570;2023-06-10T00:55:44;101894.97;;;14.88;100.00
75221;BME280;63802;53.232;6.570;2023-06-10T00:58:10;101886.31;;;14.86;100.00
75221;BME280;63802;53.232;6.570;2023-06-10T01:00:35;101888.34;;;14.89;100.00
75221;BME280;63802;53.232;6.570;2023-06-10T01:03:01;101875.19;;;14.78;100.00
75221;BME280;63802;53.232;6.570;2023-06-10T01:05:26;101880.38;;;14.84;100.00
75221;BME280;63802;53.232;6.570;2023-06-10T01:08:17;101891.03;;;14.85;100.00
75221;BME280;63802;53.232;6.570;2023-06-10T01:10:43;101879.97;;;14.82;100.00
75221;BME280;63802;53.232;6.570;2023-06-10T01:13:14;101887.41;;;14.81;100.00
75221;BME280;63802;53.232;6.570;2023-06-10T01:15:41;101892.78;;;14.74;100.00
75221;BME280;63802;53.232;6.570;2023-06-10T01:18:08;101891.56;;;14.71;100.00
75221;BME280;63802;53.232;6.570;2023-06-10T01:20:37;101886.84;;;14.72;100.00
75221;BME280;63802;53.232;6.570;2023-06-10T01:23:06;101887.16;;;14.67;100.00
75221;BME280;63802;53.232;6.570;2023-06-10T01:25:33;101900.84;;;14.63;100.00
75221;BME280;63802;53.232;6.570;2023-06-10T01:33:53;101888.47;;;14.54;100.00
75221;BME280;63802;53.232;6.570;2023-06-10T01:36:21;101897.06;;;14.52;100.00
75221;BME280;63802;53.232;6.570;2023-06-10T01:38:48;101892.28;;;14.49;100.00
75221;BME280;63802;53.232;6.570;2023-06-10T01:41:18;101899.53;;;14.57;100.00
75221;BME280;63802;53.232;6.570;2023-06-10T01:43:44;101893.97;;;14.54;100.00
75221;BME280;63802;53.232;6.570;2023-06-10T01:46:10;101897.16;;;14.56;100.00
75221;BME280;63802;53.232;6.570;2023-06-10T01:48:37;101890.00;;;14.51;100.00
75221;BME280;63802;53.232;6.570;2023-06-10T01:51:03;101898.00;;;14.60;100.00
75221;BME280;63802;53.232;6.570;2023-06-10T01:53:29;101897.06;;;14.52;100.00
75221;BME280;63802;53.232;6.570;2023-06-10T01:55:54;101903.28;;;14.49;100.00
75221;BME280;63802;53.232;6.570;2023-06-10T01:58:20;101911.84;;;14.44;100.00
75221;BME280;63802;53.232;6.570;2023-06-10T02:00:45;101908.63;;;14.42;100.00
75221;BME280;63802;53.232;6.570;2023-06-10T02:03:11;101903.44;;;14.37;100.00
75221;BME280;63802;53.232;6.570;2023-06-10T02:05:37;101905.31;;;14.33;100.00
75221;BME280;63802;53.232;6.570;2023-06-10T02:08:03;101900.72;;;14.22;100.00
75221;BME280;63802;53.232;6.570;2023-06-10T02:10:28;101901.38;;;14.15;100.00
75221;BME280;63802;53.232;6.570;2023-06-10T02:12:54;101899.34;;;14.12;100.00
75221;BME280;63802;53.232;6.570;2023-06-10T02:15:20;101904.75;;;14.08;100.00
75221;BME280;63802;53.232;6.570;2023-06-10T02:17:45;101897.59;;;14.04;100.00
75221;BME280;63802;53.232;6.570;2023-06-10T02:20:11;101897.09;;;13.98;100.00
75221;BME280;63802;53.232;6.570;2023-06-10T02:22:37;101901.78;;;13.98;100.00
75221;BME280;63802;53.232;6.570;2023-06-10T02:25:03;101894.91;;;13.88;100.00
75221;BME280;63802;53.232;6.570;2023-06-10T02:27:29;101912.47;;;13.84;100.00
75221;BME280;63802;53.232;6.570;2023-06-10T02:29:55;101911.13;;;13.78;100.00
75221;BME280;63802;53.232;6.570;2023-06-10T02:32:21;101913.72;;;13.71;100.00
75221;BME280;63802;53.232;6.570;2023-06-10T02:34:46;101916.56;;;13.74;100.00
75221;BME280;63802;53.232;6.570;2023-06-10T02:37:12;101915.75;;;13.74;100.00
75221;BME280;63802;53.232;6.570;2023-06-10T02:39:38;101910.97;;;13.71;100.00
75221;BME280;63802;53.232;6.570;2023-06-10T02:42:04;101912.13;;;13.70;100.00
75221;BME280;63802;53.232;6.570;2023-06-10T02:44:30;101916.28;;;13.64;100.00
75221;BME280;63802;53.232;6.570;2023-06-10T02:46:55;101913.97;;;13.66;100.00
75221;BME280;63802;53.232;6.570;2023-06-10T02:49:21;101909.22;;;13.63;100.00
75221;BME280;63802;53.232;6.570;2023-06-10T02:51:46;101918.50;;;13.58;100.00
75221;BME280;63802;53.232;6.570;2023-06-10T02:54:12;101907.47;;;13.55;100.00
75221;BME280;63802;53.232;6.570;2023-06-10T02:56:37;101905.44;;;13.52;100.00
75221;BME280;63802;53.232;6.570;2023-06-10T02:59:06;101900.81;;;13.56;100.00
75221;BME280;63802;53.232;6.570;2023-06-10T03:01:33;101897.19;;;13.52;100.00
75221;BME280;63802;53.232;6.570;2023-06-10T03:04:01;101896.94;;;13.57;100.00
75221;BME280;63802;53.232;6.570;2023-06-10T03:06:27;101912.94;;;13.55;100.00
75221;BME280;63802;53.232;6.570;2023-06-10T03:08:53;101908.34;;;13.59;100.00
75221;BME280;63802;53.232;6.570;2023-06-10T03:11:19;101903.56;;;13.56;100.00
75221;BME280;63802;53.232;6.570;2023-06-10T03:13:44;101905.09;;;13.53;100.00
75221;BME280;63802;53.232;6.570;2023-06-10T03:16:10;101910.22;;;13.55;100.00
75221;BME280;63802;53.232;6.570;2023-06-10T03:18:37;101909.84;;;13.56;100.00
75221;BME280;63802;53.232;6.570;2023-06-10T03:21:02;101901.53;;;13.53;100.00
75221;BME280;63802;53.232;6.570;2023-06-10T03:23:28;101910.22;;;13.55;100.00
75221;BME280;63802;53.232;6.570;2023-06-10T03:25:57;101916.06;;;13.53;100.00
75221;BME280;63802;53.232;6.570;2023-06-10T03:28:22;101911.78;;;13.56;100.00
75221;BME280;63802;53.232;6.570;2023-06-10T03:30:48;101929.13;;;13.60;100.00
75221;BME280;63802;53.232;6.570;2023-06-10T03:33:13;101927.97;;;13.61;100.00
75221;BME280;63802;53.232;6.570;2023-06-10T03:35:39;101930.28;;;13.59;100.00
75221;BME280;63802;53.232;6.570;2023-06-10T03:38:04;101934.19;;;13.58;100.00
75221;BME280;63802;53.232;6.570;2023-06-10T03:40:30;101932.59;;;13.57;100.00
75221;BME280;63802;53.232;6.570;2023-06-10T03:42:57;101936.19;;;13.61;100.00
75221;BME280;63802;53.232;6.570;2023-06-10T03:45:22;101934.63;;;13.60;100.00
75221;BME280;63802;53.232;6.570;2023-06-10T03:47:48;101930.28;;;13.59;100.00
75221;BME280;63802;53.232;6.570;2023-06-10T03:50:13;101946.72;;;13.59;100.00
75221;BME280;63802;53.232;6.570;2023-06-10T03:52:38;101939.22;;;13.56;100.00
75221;BME280;63802;53.232;6.570;2023-06-10T03:55:05;101949.16;;;13.60;100.00
75221;BME280;63802;53.232;6.570;2023-06-10T03:57:31;101930.22;;;13.55;100.00
75221;BME280;63802;53.232;6.570;2023-06-10T03:59:57;101954.53;;;13.57;100.00
75221;BME280;63802;53.232;6.570;2023-06-10T04:02:22;101943.56;;;13.57;100.00
75221;BME280;63802;53.232;6.570;2023-06-10T04:04:48;101949.84;;;13.57;100.00
75221;BME280;63802;53.232;6.570;2023-06-10T04:07:14;101949.75;;;13.54;100.00
75221;BME280;63802;53.232;6.570;2023-06-10T04:09:40;101939.03;;;13.49;100.00
75221;BME280;63802;53.232;6.570;2023-06-10T04:12:06;101943.66;;;13.60;100.00
75221;BME280;63802;53.232;6.570;2023-06-10T04:14:33;101926.56;;;13.51;100.00
75221;BME280;63802;53.232;6.570;2023-06-10T04:17:01;101936.47;;;13.56;100.00
75221;BME280;63802;53.232;6.570;2023-06-10T04:19:26;101941.25;;;13.59;100.00
75221;BME280;63802;53.232;6.570;2023-06-10T04:21:51;101938.06;;;13.57;100.00
75221;BME280;63802;53.232;6.570;2023-06-10T04:24:17;101944.00;;;13.59;100.00
75221;BME280;63802;53.232;6.570;2023-06-10T04:26:43;101943.72;;;13.64;100.00
75221;BME280;63802;53.232;6.570;2023-06-10T04:29:08;101944.59;;;13.68;100.00
75221;BME280;63802;53.232;6.570;2023-06-10T04:31:36;101949.38;;;13.71;100.00
75221;BME280;63802;53.232;6.570;2023-06-10T04:34:02;101945.56;;;13.75;100.00
75221;BME280;63802;53.232;6.570;2023-06-10T04:36:27;101943.44;;;13.84;100.00
75221;BME280;63802;53.232;6.570;2023-06-10T04:38:54;101953.06;;;13.94;100.00
75221;BME280;63802;53.232;6.570;2023-06-10T04:41:20;101952.00;;;13.98;100.00
75221;BME280;63802;53.232;6.570;2023-06-10T04:43:45;101957.38;;;14.10;100.00
75221;BME280;63802;53.232;6.570;2023-06-10T04:46:10;101946.88;;;14.16;100.00
75221;BME280;63802;53.232;6.570;2023-06-10T04:48:36;101953.19;;;14.32;100.00
75221;BME280;63802;53.232;6.570;2023-06-10T04:51:02;101958.72;;;14.36;100.00
75221;BME280;63802;53.232;6.570;2023-06-10T04:53:27;101957.72;;;14.44;100.00
75221;BME280;63802;53.232;6.570;2023-06-10T04:55:53;101959.38;;;14.48;100.00
75221;BME280;63802;53.232;6.570;2023-06-10T04:58:19;101958.59;;;14.67;100.00
75221;BME280;63802;53.232;6.570;2023-06-10T05:00:44;101963.00;;;14.71;100.00
75221;BME280;63802;53.232;6.570;2023-06-10T05:03:10;101965.16;;;14.82;100.00
75221;BME280;63802;53.232;6.570;2023-06-10T05:05:35;101961.41;;;14.90;100.00
75221;BME280;63802;53.232;6.570;2023-06-10T05:08:00;101970.06;;;14.92;100.00
75221;BME280;63802;53.232;6.570;2023-06-10T05:10:26;101967.88;;;15.01;100.00
75221;BME280;63802;53.232;6.570;2023-06-10T05:12:51;101971.47;;;15.05;100.00
75221;BME280;63802;53.232;6.570;2023-06-10T05:15:16;101968.16;;;15.15;100.00
75221;BME280;63802;53.232;6.570;2023-06-10T05:17:42;101960.19;;;15.10;100.00
75221;BME280;63802;53.232;6.570;2023-06-10T05:20:08;101961.78;;;15.11;100.00
75221;BME280;63802;53.232;6.570;2023-06-10T05:22:33;101966.06;;;15.31;100.00
75221;BME280;63802;53.232;6.570;2023-06-10T05:24:59;101961.44;;;15.35;100.00
75221;BME280;63802;53.232;6.570;2023-06-10T05:27:25;101962.59;;;15.34;100.00
75221;BME280;63802;53.232;6.570;2023-06-10T05:29:50;101960.75;;;15.41;100.00
75221;BME280;63802;53.232;6.570;2023-06-10T05:32:17;101964.47;;;15.49;100.00
75221;BME280;63802;53.232;6.570;2023-06-10T05:34:42;101973.75;;;15.64;100.00
75221;BME280;63802;53.232;6.570;2023-06-10T05:37:07;101965.22;;;15.72;100.00
75221;BME280;63802;53.232;6.570;2023-06-10T05:39:35;101967.97;;;15.72;100.00
75221;BME280;63802;53.232;6.570;2023-06-10T05:42:03;101966.94;;;15.80;100.00
75221;BME280;63802;53.232;6.570;2023-06-10T05:44:29;101967.22;;;15.98;100.00
75221;BME280;63802;53.232;6.570;2023-06-10T05:46:55;101975.59;;;16.08;100.00
75221;BME280;63802;53.232;6.570;2023-06-10T05:49:20;101975.19;;;16.06;100.00
75221;BME280;63802;53.232;6.570;2023-06-10T05:51:45;101969.78;;;16.14;100.00
75221;BME280;63802;53.232;6.570;2023-06-10T05:54:11;101973.91;;;16.27;100.00
75221;BME280;63802;53.232;6.570;2023-06-10T05:56:36;101970.91;;;16.39;100.00
75221;BME280;63802;53.232;6.570;2023-06-10T05:59:01;101968.78;;;16.55;100.00
75221;BME280;63802;53.232;6.570;2023-06-10T06:01:27;101963.97;;;16.48;100.00
75221;BME280;63802;53.232;6.570;2023-06-10T06:03:52;101964.31;;;16.47;100.00
75221;BME280;63802;53.232;6.570;2023-06-10T06:06:18;101966.94;;;16.66;100.00
75221;BME280;63802;53.232;6.570;2023-06-10T06:08:45;101967.34;;;16.64;100.00
75221;BME280;63802;53.232;6.570;2023-06-10T06:11:11;101975.47;;;16.87;100.00
75221;BME280;63802;53.232;6.570;2023-06-10T06:13:36;101972.72;;;16.87;100.00
75221;BME280;63802;53.232;6.570;2023-06-10T06:16:01;101962.19;;;16.96;100.00
75221;BME280;63802;53.232;6.570;2023-06-10T06:18:27;101965.78;;;17.00;100.00
75221;BME280;63802;53.232;6.570;2023-06-10T06:20:52;101969.34;;;17.04;100.00
75221;BME280;63802;53.232;6.570;2023-06-10T06:23:17;101963.97;;;17.18;100.00
75221;BME280;63802;53.232;6.570;2023-06-10T06:25:43;101956.22;;;17.31;100.00
75221;BME280;63802;53.232;6.570;2023-06-10T06:28:09;101954.03;;;17.51;100.00
75221;BME280;63802;53.232;6.570;2023-06-10T06:30:35;101950.97;;;17.59;100.00
75221;BME280;63802;53.232;6.570;2023-06-10T06:33:01;101961.78;;;17.82;100.00
75221;BME280;63802;53.232;6.570;2023-06-10T06:35:26;101955.81;;;17.73;100.00
75221;BME280;63802;53.232;6.570;2023-06-10T06:37:52;101966.97;;;17.87;100.00
75221;BME280;63802;53.232;6.570;2023-06-10T06:40:17;101963.78;;;17.85;100.00
75221;BME280;63802;53.232;6.570;2023-06-10T06:42:43;101949.72;;;18.04;100.00
75221;BME280;63802;53.232;6.570;2023-06-10T06:45:08;101945.53;;;18.35;100.00
75221;BME280;63802;53.232;6.570;2023-06-10T06:47:34;101955.03;;;18.44;100.00
75221;BME280;63802;53.232;6.570;2023-06-10T06:49:59;101952.78;;;18.64;100.00
75221;BME280;63802;53.232;6.570;2023-06-10T06:52:25;101944.91;;;18.84;100.00
75221;BME280;63802;53.232;6.570;2023-06-10T06:54:50;101939.84;;;18.93;100.00
75221;BME280;63802;53.232;6.570;2023-06-10T06:57:16;101954.88;;;19.16;100.00
75221;BME280;63802;53.232;6.570;2023-06-10T06:59:41;101955.69;;;19.17;100.00
75221;BME280;63802;53.232;6.570;2023-06-10T07:02:07;101951.72;;;19.18;100.00
75221;BME280;63802;53.232;6.570;2023-06-10T07:04:32;101966.41;;;19.36;100.00
75221;BME280;63802;53.232;6.570;2023-06-10T07:06:57;101958.47;;;19.63;100.00
75221;BME280;63802;53.232;6.570;2023-06-10T07:09:23;101965.97;;;20.08;100.00
75221;BME280;63802;53.232;6.570;2023-06-10T07:11:48;101966.34;;;19.99;100.00
75221;BME280;63802;53.232;6.570;2023-06-10T07:14:14;101975.06;;;19.94;100.00
75221;BME280;63802;53.232;6.570;2023-06-10T07:16:40;101974.31;;;19.90;100.00
75221;BME280;63802;53.232;6.570;2023-06-10T07:19:05;101965.22;;;19.86;100.00
75221;BME280;63802;53.232;6.570;2023-06-10T07:21:30;101977.41;;;20.28;100.00
75221;BME280;63802;53.232;6.570;2023-06-10T07:23:57;101966.72;;;20.08;100.00
75221;BME280;63802;53.232;6.570;2023-06-10T07:26:23;101976.19;;;20.36;100.00
75221;BME280;63802;53.232;6.570;2023-06-10T07:28:48;101974.03;;;20.79;99.57
75221;BME280;63802;53.232;6.570;2023-06-10T07:31:14;101978.34;;;20.90;96.17
75221;BME280;63802;53.232;6.570;2023-06-10T07:33:40;101980.25;;;21.00;96.20
75221;BME280;63802;53.232;6.570;2023-06-10T07:36:08;101974.13;;;21.33;91.59
75221;BME280;63802;53.232;6.570;2023-06-10T07:38:34;101988.84;;;21.27;88.96
75221;BME280;63802;53.232;6.570;2023-06-10T07:41:00;101980.03;;;21.43;88.82
75221;BME280;63802;53.232;6.570;2023-06-10T07:43:25;101987.44;;;21.56;88.35
75221;BME280;63802;53.232;6.570;2023-06-10T07:45:51;101985.31;;;21.19;85.64
75221;BME280;63802;53.232;6.570;2023-06-10T07:48:16;101984.47;;;21.29;86.74
75221;BME280;63802;53.232;6.570;2023-06-10T07:50:42;101983.56;;;21.47;86.94
75221;BME280;63802;53.232;6.570;2023-06-10T07:53:07;101981.84;;;21.60;85.44
75221;BME280;63802;53.232;6.570;2023-06-10T07:55:32;101981.41;;;21.65;82.10
75221;BME280;63802;53.232;6.570;2023-06-10T07:57:58;101995.63;;;21.22;86.33
75221;BME280;63802;53.232;6.570;2023-06-10T08:00:23;101978.22;;;21.18;85.60
75221;BME280;63802;53.232;6.570;2023-06-10T08:02:48;101984.97;;;21.69;85.44
75221;BME280;63802;53.232;6.570;2023-06-10T08:05:14;101992.34;;;21.86;85.17
75221;BME280;63802;53.232;6.570;2023-06-10T08:07:40;101983.03;;;22.07;81.36
75221;BME280;63802;53.232;6.570;2023-06-10T08:10:06;101996.16;;;22.43;78.51
75221;BME280;63802;53.232;6.570;2023-06-10T08:12:32;101986.84;;;22.20;77.37
75221;BME280;63802;53.232;6.570;2023-06-10T08:14:58;101986.56;;;22.48;78.31
75221;BME280;63802;53.232;6.570;2023-06-10T08:17:23;101982.09;;;22.88;76.79
75221;BME280;63802;53.232;6.570;2023-06-10T08:19:49;101987.03;;;23.30;74.89
75221;BME280;63802;53.232;6.570;2023-06-10T08:22:14;101989.44;;;23.28;72.88
75221;BME280;63802;53.232;6.570;2023-06-10T08:24:40;101985.78;;;23.08;73.19
75221;BME280;63802;53.232;6.570;2023-06-10T08:27:06;101985.69;;;23.15;72.72
75221;BME280;63802;53.232;6.570;2023-06-10T08:29:31;101991.03;;;23.29;68.95
75221;BME280;63802;53.232;6.570;2023-06-10T08:31:58;101986.94;;;23.37;68.91
75221;BME280;63802;53.232;6.570;2023-06-10T08:34:23;101987.91;;;23.54;68.51
75221;BME280;63802;53.232;6.570;2023-06-10T08:36:49;101993.63;;;23.43;67.61
75221;BME280;63802;53.232;6.570;2023-06-10T08:39:22;101979.88;;;23.79;69.08
75221;BME280;63802;53.232;6.570;2023-06-10T08:44:27;101997.38;;;24.02;67.93
75221;BME280;63802;53.232;6.570;2023-06-10T08:46:53;101975.13;;;23.56;67.30
75221;BME280;63802;53.232;6.570;2023-06-10T08:49:22;101984.78;;;23.94;67.26
75221;BME280;63802;53.232;6.570;2023-06-10T08:51:50;101977.00;;;24.06;65.85
75221;BME280;63802;53.232;6.570;2023-06-10T08:54:21;101989.16;;;23.72;68.09
75221;BME280;63802;53.232;6.570;2023-06-10T08:56:49;101980.25;;;24.04;67.47
75221;BME280;63802;53.232;6.570;2023-06-10T08:59:18;101980.91;;;24.31;67.37
75221;BME280;63802;53.232;6.570;2023-06-10T09:01:45;101983.91;;;24.60;63.82
75221;BME280;63802;53.232;6.570;2023-06-10T09:04:11;101981.31;;;24.69;62.63
75221;BME280;63802;53.232;6.570;2023-06-10T09:06:37;101985.22;;;24.36;65.81
75221;BME280;63802;53.232;6.570;2023-06-10T09:09:05;101987.72;;;24.89;64.39
75221;BME280;63802;53.232;6.570;2023-06-10T09:11:31;101986.25;;;25.01;64.10
75221;BME280;63802;53.232;6.570;2023-06-10T09:13:57;101992.25;;;24.83;63.41
75221;BME280;63802;53.232;6.570;2023-06-10T09:16:24;101976.97;;;24.88;59.93
75221;BME280;63802;53.232;6.570;2023-06-10T09:18:50;101979.41;;;24.66;57.10
75221;BME280;63802;53.232;6.570;2023-06-10T09:21:23;101981.56;;;24.58;59.41
75221;BME280;63802;53.232;6.570;2023-06-10T09:23:49;101979.63;;;24.36;61.38
75221;BME280;63802;53.232;6.570;2023-06-10T09:26:15;101973.03;;;24.46;62.99
75221;BME280;63802;53.232;6.570;2023-06-10T09:28:44;101976.63;;;24.46;64.40
75221;BME280;63802;53.232;6.570;2023-06-10T09:31:12;101963.53;;;24.24;66.34
75221;BME280;63802;53.232;6.570;2023-06-10T09:33:39;101971.34;;;24.52;66.08
75221;BME280;63802;53.232;6.570;2023-06-10T09:36:05;101965.88;;;24.64;64.38
75221;BME280;63802;53.232;6.570;2023-06-10T09:38:33;101964.66;;;24.65;61.91
75221;BME280;63802;53.232;6.570;2023-06-10T09:41:00;101965.75;;;25.07;61.39
75221;BME280;63802;53.232;6.570;2023-06-10T09:43:38;101968.56;;;25.07;60.08
75221;BME280;63802;53.232;6.570;2023-06-10T09:46:04;101944.81;;;24.80;60.55
75221;BME280;63802;53.232;6.570;2023-06-10T09:48:29;101959.44;;;24.87;60.21
75221;BME280;63802;53.232;6.570;2023-06-10T09:50:55;101959.03;;;25.05;60.18
75221;BME280;63802;53.232;6.570;2023-06-10T09:53:20;101965.78;;;25.23;59.83
75221;BME280;63802;53.232;6.570;2023-06-10T09:55:46;101965.94;;;25.16;59.05
75221;BME280;63802;53.232;6.570;2023-06-10T09:58:11;101954.03;;;25.12;58.39
75221;BME280;63802;53.232;6.570;2023-06-10T10:00:37;101955.78;;;25.06;57.79
75221;BME280;63802;53.232;6.570;2023-06-10T10:03:02;101966.72;;;25.17;55.37
75221;BME280;63802;53.232;6.570;2023-06-10T10:05:28;101954.19;;;25.57;55.34
75221;BME280;63802;53.232;6.570;2023-06-10T10:07:55;101958.19;;;26.01;55.76
75221;BME280;63802;53.232;6.570;2023-06-10T10:10:22;101953.72;;;26.20;53.30
75221;BME280;63802;53.232;6.570;2023-06-10T10:12:50;101965.78;;;26.17;53.93
75221;BME280;63802;53.232;6.570;2023-06-10T10:15:17;101967.56;;;26.39;52.46
75221;BME280;63802;53.232;6.570;2023-06-10T10:17:49;101966.22;;;26.44;51.57
75221;BME280;63802;53.232;6.570;2023-06-10T10:20:20;101965.69;;;26.20;51.15
75221;BME280;63802;53.232;6.570;2023-06-10T10:22:49;101956.97;;;26.72;52.93
75221;BME280;63802;53.232;6.570;2023-06-10T10:25:25;101950.38;;;26.79;50.94
75221;BME280;63802;53.232;6.570;2023-06-10T10:27:57;101958.34;;;26.93;50.72
75221;BME280;63802;53.232;6.570;2023-06-10T10:30:25;101948.06;;;26.90;49.48
75221;BME280;63802;53.232;6.570;2023-06-10T10:33:04;101959.38;;;26.86;47.77
75221;BME280;63802;53.232;6.570;2023-06-10T10:35:30;101947.03;;;26.84;48.50
75221;BME280;63802;53.232;6.570;2023-06-10T10:37:57;101950.47;;;27.51;47.61
75221;BME280;63802;53.232;6.570;2023-06-10T10:40:23;101938.41;;;27.16;46.82
75221;BME280;63802;53.232;6.570;2023-06-10T10:42:50;101952.00;;;27.64;45.94
75221;BME280;63802;53.232;6.570;2023-06-10T10:45:16;101947.31;;;27.96;45.25
75221;BME280;63802;53.232;6.570;2023-06-10T10:47:44;101953.69;;;27.62;44.98
75221;BME280;63802;53.232;6.570;2023-06-10T10:50:15;101933.22;;;27.02;45.56
75221;BME280;63802;53.232;6.570;2023-06-10T10:52:55;101957.44;;;27.34;43.90
75221;BME280;63802;53.232;6.570;2023-06-10T10:55:25;101947.34;;;27.36;44.32
75221;BME280;63802;53.232;6.570;2023-06-10T10:58:13;101936.25;;;27.79;46.49
75221;BME280;63802;53.232;6.570;2023-06-10T11:00:44;101933.56;;;28.10;45.70
75221;BME280;63802;53.232;6.570;2023-06-10T11:03:14;101933.25;;;27.96;43.11
75221;BME280;63802;53.232;6.570;2023-06-10T11:05:43;101938.59;;;28.15;42.79
75221;BME280;63802;53.232;6.570;2023-06-10T11:08:12;101939.91;;;28.67;42.79
75221;BME280;63802;53.232;6.570;2023-06-10T11:10:40;101941.00;;;28.69;41.48
75221;BME280;63802;53.232;6.570;2023-06-10T11:13:07;101933.81;;;28.68;39.90
75221;BME280;63802;53.232;6.570;2023-06-10T11:15:38;101939.03;;;28.57;41.81
75221;BME280;63802;53.232;6.570;2023-06-10T11:18:10;101927.09;;;28.22;39.00
75221;BME280;63802;53.232;6.570;2023-06-10T11:29:01;101918.66;;;28.44;38.04
75221;BME280;63802;53.232;6.570;2023-06-10T11:31:28;101905.47;;;28.32;37.34
75221;BME280;63802;53.232;6.570;2023-06-10T11:33:55;101907.38;;;28.35;39.74
75221;BME280;63802;53.232;6.570;2023-06-10T11:36:22;101900.25;;;28.43;40.62
75221;BME280;63802;53.232;6.570;2023-06-10T11:38:48;101904.41;;;28.91;40.54
75221;BME280;63802;53.232;6.570;2023-06-10T11:41:14;101893.66;;;29.07;42.36
75221;BME280;63802;53.232;6.570;2023-06-10T11:43:44;101893.28;;;29.45;43.71
75221;BME280;63802;53.232;6.570;2023-06-10T11:46:10;101883.13;;;29.39;43.40
75221;BME280;63802;53.232;6.570;2023-06-10T11:48:36;101891.22;;;29.18;43.43
75221;BME280;63802;53.232;6.570;2023-06-10T11:51:06;101874.22;;;29.22;42.71
75221;BME280;63802;53.232;6.570;2023-06-10T11:53:31;101892.06;;;28.97;42.38
75221;BME280;63802;53.232;6.570;2023-06-10T11:55:56;101883.63;;;28.88;43.47
75221;BME280;63802;53.232;6.570;2023-06-10T11:58:22;101887.41;;;29.03;42.33
75221;BME280;63802;53.232;6.570;2023-06-10T12:00:50;101886.38;;;29.19;42.05
75221;BME280;63802;53.232;6.570;2023-06-10T12:03:17;101881.72;;;29.43;41.68
75221;BME280;63802;53.232;6.570;2023-06-10T12:05:59;101885.28;;;29.26;40.21
75221;BME280;63802;53.232;6.570;2023-06-10T12:08:25;101878.84;;;29.16;41.29
75221;BME280;63802;53.232;6.570;2023-06-10T12:10:51;101879.41;;;29.42;40.15
75221;BME280;63802;53.232;6.570;2023-06-10T12:13:17;101885.03;;;29.96;39.87
75221;BME280;63802;53.232;6.570;2023-06-10T12:15:48;101885.78;;;29.24;42.76
75221;BME280;63802;53.232;6.570;2023-06-10T12:20:43;101881.69;;;29.25;39.17
75221;BME280;63802;53.232;6.570;2023-06-10T12:23:12;101878.50;;;28.96;42.30
75221;BME280;63802;53.232;6.570;2023-06-10T12:25:38;101894.06;;;29.37;44.34
75221;BME280;63802;53.232;6.570;2023-06-10T12:28:05;101892.06;;;29.46;42.70
75221;BME280;63802;53.232;6.570;2023-06-10T12:30:31;101877.47;;;28.72;45.67
75221;BME280;63802;53.232;6.570;2023-06-10T12:32:59;101886.59;;;29.61;44.29
75221;BME280;63802;53.232;6.570;2023-06-10T12:35:26;101881.28;;;29.81;39.33
75221;BME280;63802;53.232;6.570;2023-06-10T12:38:02;101883.59;;;29.28;43.89
75221;BME280;63802;53.232;6.570;2023-06-10T12:40:36;101878.78;;;29.83;42.56
75221;BME280;63802;53.232;6.570;2023-06-10T12:43:02;101871.41;;;29.67;43.16
75221;BME280;63802;53.232;6.570;2023-06-10T12:45:29;101872.81;;;29.72;43.70
75221;BME280;63802;53.232;6.570;2023-06-10T12:48:16;101880.63;;;29.59;40.96
75221;BME280;63802;53.232;6.570;2023-06-10T12:50:42;101879.09;;;29.94;40.28
75221;BME280;63802;53.232;6.570;2023-06-10T12:53:09;101878.91;;;29.61;42.76
75221;BME280;63802;53.232;6.570;2023-06-10T12:55:36;101873.78;;;29.87;43.19
75221;BME280;63802;53.232;6.570;2023-06-10T12:58:02;101881.25;;;30.17;42.44
75221;BME280;63802;53.232;6.570;2023-06-10T13:00:28;101883.47;;;30.04;42.71
75221;BME280;63802;53.232;6.570;2023-06-10T13:03:01;101882.81;;;29.55;43.94